sensor_id;sensor_type;location;lat;lon;timestamp;pressure;altitude;pressure_sealevel;temperature;humidity
7940;BME280;4015;48.888;9.226;2023-02-12T00:00:49;157020.63;;;7.06;77.46
7940;BME280;4015;48.888;9.226;2023-02-12T00:03:16;157047.41;;;7.17;77.08
7940;BME280;4015;48.888;9.226;2023-02-12T00:05:41;157070.34;;;7.26;76.76
7940;BME280;4015;48.888;9.226;2023-02-12T00:08:08;157063.97;;;7.23;76.65
7940;BME280;4015;48.888;9.226;2023-02-12T00:10:39;157066.53;;;7.24;76.58
7940;BME280;4015;48.888;9.226;2023-02-12T00:13:04;157071.59;;;7.26;76.43
7940;BME280;4015;48.888;9.226;2023-02-12T00:15:29;157057.59;;;7.21;77.04
7940;BME280;4015;48.888;9.226;2023-02-12T00:17:55;157057.59;;;7.21;77.17
7940;BME280;4015;48.888;9.226;2023-02-12T00:20:20;157042.28;;;7.15;76.94
7940;BME280;4015;48.888;9.226;2023-02-12T00:22:45;157051.22;;;7.18;77.01
7940;BME280;4015;48.888;9.226;2023-02-12T00:25:11;157043.56;;;7.15;77.38
7940;BME280;4015;48.888;9.226;2023-02-12T00:27:38;157048.69;;;7.17;77.30
7940;BME280;4015;48.888;9.226;2023-02-12T00:30:03;157044.81;;;7.16;77.40
7940;BME280;4015;48.888;9.226;2023-02-12T00:32:28;157061.41;;;7.22;77.08
7940;BME280;4015;48.888;9.226;2023-02-12T00:34:54;157051.22;;;7.18;77.08
7940;BME280;4015;48.888;9.226;2023-02-12T00:37:19;157049.97;;;7.18;77.54
7940;BME280;4015;48.888;9.226;2023-02-12T00:39:44;157041.00;;;7.14;77.67
7940;BME280;4015;48.888;9.226;2023-02-12T00:42:10;157044.81;;;7.16;77.50
7940;BME280;4015;48.888;9.226;2023-02-12T00:44:35;157027.00;;;7.09;78.03
7940;BME280;4015;48.888;9.226;2023-02-12T00:47:01;157012.97;;;7.03;78.32
7940;BME280;4015;48.888;9.226;2023-02-12T00:49:28;156977.31;;;6.89;78.70
7940;BME280;4015;48.888;9.226;2023-02-12T00:51:58;156986.25;;;6.92;78.79
7940;BME280;4015;48.888;9.226;2023-02-12T00:54:23;156997.69;;;6.97;78.29
7940;BME280;4015;48.888;9.226;2023-02-12T00:56:48;156963.28;;;6.83;78.53
7940;BME280;4015;48.888;9.226;2023-02-12T00:59:14;156932.69;;;6.71;79.05
7940;BME280;4015;48.888;9.226;2023-02-12T01:01:39;156984.97;;;6.92;78.15
7940;BME280;4015;48.888;9.226;2023-02-12T01:04:04;156969.69;;;6.86;78.39
7940;BME280;4015;48.888;9.226;2023-02-12T01:06:29;156969.69;;;6.86;78.13
7940;BME280;4015;48.888;9.226;2023-02-12T01:08:55;156973.50;;;6.87;77.96
7940;BME280;4015;48.888;9.226;2023-02-12T01:11:20;156925.06;;;6.68;78.43
7940;BME280;4015;48.888;9.226;2023-02-12T01:13:46;156946.72;;;6.76;78.35
7940;BME280;4015;48.888;9.226;2023-02-12T01:16:17;156948.00;;;6.77;78.45
7940;BME280;4015;48.888;9.226;2023-02-12T01:18:43;156941.63;;;6.74;78.65
7940;BME280;4015;48.888;9.226;2023-02-12T01:21:11;156939.09;;;6.73;78.61
7940;BME280;4015;48.888;9.226;2023-02-12T01:23:37;156935.25;;;6.72;78.86
7940;BME280;4015;48.888;9.226;2023-02-12T01:26:02;156945.44;;;6.76;78.90
7940;BME280;4015;48.888;9.226;2023-02-12T01:28:28;156964.56;;;6.84;78.22
7940;BME280;4015;48.888;9.226;2023-02-12T01:30:54;156958.19;;;6.81;78.09
7940;BME280;4015;48.888;9.226;2023-02-12T01:33:19;156950.53;;;6.78;78.41
7940;BME280;4015;48.888;9.226;2023-02-12T01:35:45;156944.19;;;6.75;78.61
7940;BME280;4015;48.888;9.226;2023-02-12T01:38:10;156926.34;;;6.68;78.77
7940;BME280;4015;48.888;9.226;2023-02-12T01:40:35;156926.34;;;6.68;78.87
7940;BME280;4015;48.888;9.226;2023-02-12T01:43:01;156895.75;;;6.56;78.85
7940;BME280;4015;48.888;9.226;2023-02-12T01:47:52;156958.19;;;6.81;78.71
7940;BME280;4015;48.888;9.226;2023-02-12T01:50:18;156922.53;;;6.67;78.59
7940;BME280;4015;48.888;9.226;2023-02-12T01:52:49;156953.13;;;6.79;78.48
7940;BME280;4015;48.888;9.226;2023-02-12T01:55:16;156951.81;;;6.79;78.41
7940;BME280;4015;48.888;9.226;2023-02-12T01:57:44;156950.53;;;6.78;78.68
7940;BME280;4015;48.888;9.226;2023-02-12T02:00:20;156962.00;;;6.83;78.28
7940;BME280;4015;48.888;9.226;2023-02-12T02:02:57;156965.81;;;6.84;78.24
7940;BME280;4015;48.888;9.226;2023-02-12T02:05:31;156964.56;;;6.84;78.00
7940;BME280;4015;48.888;9.226;2023-02-12T02:07:59;156962.00;;;6.83;78.04
7940;BME280;4015;48.888;9.226;2023-02-12T02:10:24;156969.69;;;6.86;78.18
7940;BME280;4015;48.888;9.226;2023-02-12T02:12:50;156982.38;;;6.91;77.82
7940;BME280;4015;48.888;9.226;2023-02-12T02:15:35;156963.28;;;6.83;78.00
7940;BME280;4015;48.888;9.226;2023-02-12T02:18:06;156954.38;;;6.80;78.17
7940;BME280;4015;48.888;9.226;2023-02-12T02:31:39;156931.44;;;6.70;78.48
7940;BME280;4015;48.888;9.226;2023-02-12T02:34:28;156832.06;;;6.31;79.47
7940;BME280;4015;48.888;9.226;2023-02-12T02:40:03;156903.38;;;6.59;79.11
7940;BME280;4015;48.888;9.226;2023-02-12T02:43:06;156848.63;;;6.37;79.61
7940;BME280;4015;48.888;9.226;2023-02-12T02:48:18;156876.66;;;6.48;79.87
7940;BME280;4015;48.888;9.226;2023-02-12T02:50:56;156858.84;;;6.41;79.36
7940;BME280;4015;48.888;9.226;2023-02-12T02:53:32;156828.25;;;6.29;80.23
7940;BME280;4015;48.888;9.226;2023-02-12T02:56:01;156856.25;;;6.40;80.25
7940;BME280;4015;48.888;9.226;2023-02-12T02:58:38;156832.06;;;6.31;79.80
7940;BME280;4015;48.888;9.226;2023-02-12T03:01:13;156854.97;;;6.40;80.16
7940;BME280;4015;48.888;9.226;2023-02-12T03:04:06;156876.66;;;6.48;79.75
7940;BME280;4015;48.888;9.226;2023-02-12T03:06:53;156819.31;;;6.26;80.40
7940;BME280;4015;48.888;9.226;2023-02-12T03:09:24;156793.84;;;6.15;80.78
7940;BME280;4015;48.888;9.226;2023-02-12T03:11:55;156849.91;;;6.38;80.34
7940;BME280;4015;48.888;9.226;2023-02-12T03:14:26;156842.22;;;6.35;80.06
7940;BME280;4015;48.888;9.226;2023-02-12T03:17:02;156814.25;;;6.24;80.56
7940;BME280;4015;48.888;9.226;2023-02-12T03:19:32;156852.44;;;6.39;80.33
7940;BME280;4015;48.888;9.226;2023-02-12T03:22:05;156865.19;;;6.44;80.28
7940;BME280;4015;48.888;9.226;2023-02-12T03:24:35;156842.22;;;6.35;80.57
7940;BME280;4015;48.888;9.226;2023-02-12T03:27:10;156838.44;;;6.33;80.80
7940;BME280;4015;48.888;9.226;2023-02-12T03:29:37;156823.13;;;6.27;81.01
7940;BME280;4015;48.888;9.226;2023-02-12T03:37:05;156830.81;;;6.30;80.63
7940;BME280;4015;48.888;9.226;2023-02-12T03:39:53;156844.81;;;6.36;80.54
7940;BME280;4015;48.888;9.226;2023-02-12T03:45:16;156846.09;;;6.36;80.07
7940;BME280;4015;48.888;9.226;2023-02-12T03:47:47;156854.97;;;6.40;80.05
7940;BME280;4015;48.888;9.226;2023-02-12T03:50:20;156865.19;;;6.44;80.19
7940;BME280;4015;48.888;9.226;2023-02-12T03:52:48;156862.66;;;6.43;80.02
7940;BME280;4015;48.888;9.226;2023-02-12T03:55:15;156871.53;;;6.46;79.77
7940;BME280;4015;48.888;9.226;2023-02-12T03:57:45;156869.00;;;6.45;79.92
7940;BME280;4015;48.888;9.226;2023-02-12T04:00:17;156862.66;;;6.43;80.12
7940;BME280;4015;48.888;9.226;2023-02-12T04:02:43;156861.38;;;6.42;79.87
7940;BME280;4015;48.888;9.226;2023-02-12T04:05:26;156857.53;;;6.41;80.02
7940;BME280;4015;48.888;9.226;2023-02-12T04:07:53;156847.38;;;6.37;79.70
7940;BME280;4015;48.888;9.226;2023-02-12T04:10:26;156863.91;;;6.43;79.87
7940;BME280;4015;48.888;9.226;2023-02-12T04:13:02;156874.13;;;6.47;79.88
7940;BME280;4015;48.888;9.226;2023-02-12T04:15:53;156879.22;;;6.49;79.70
7940;BME280;4015;48.888;9.226;2023-02-12T04:18:24;156849.91;;;6.38;79.83
7940;BME280;4015;48.888;9.226;2023-02-12T04:24:11;156847.38;;;6.37;80.26
7940;BME280;4015;48.888;9.226;2023-02-12T04:26:56;156810.38;;;6.22;80.62
7940;BME280;4015;48.888;9.226;2023-02-12T04:37:58;156846.09;;;6.36;80.27
7940;BME280;4015;48.888;9.226;2023-02-12T04:40:26;156824.41;;;6.28;80.28
7940;BME280;4015;48.888;9.226;2023-02-12T04:42:52;156843.56;;;6.35;80.08
7940;BME280;4015;48.888;9.226;2023-02-12T04:45:22;156842.22;;;6.35;80.11
7940;BME280;4015;48.888;9.226;2023-02-12T04:47:49;156842.22;;;6.35;80.22
7940;BME280;4015;48.888;9.226;2023-02-12T04:50:15;156840.97;;;6.34;80.40
7940;BME280;4015;48.888;9.226;2023-02-12T04:52:40;156825.69;;;6.28;80.58
7940;BME280;4015;48.888;9.226;2023-02-12T04:55:06;156809.13;;;6.21;80.70
7940;BME280;4015;48.888;9.226;2023-02-12T04:57:31;156811.72;;;6.22;80.70
7940;BME280;4015;48.888;9.226;2023-02-12T04:59:57;156809.13;;;6.21;80.96
7940;BME280;4015;48.888;9.226;2023-02-12T05:02:22;156823.13;;;6.27;80.79
7940;BME280;4015;48.888;9.226;2023-02-12T05:04:48;156820.59;;;6.26;80.76
7940;BME280;4015;48.888;9.226;2023-02-12T05:07:14;156804.03;;;6.19;81.10
7940;BME280;4015;48.888;9.226;2023-02-12T05:09:39;156820.59;;;6.26;80.64
7940;BME280;4015;48.888;9.226;2023-02-12T05:12:05;156818.06;;;6.25;80.64
7940;BME280;4015;48.888;9.226;2023-02-12T05:14:30;156815.53;;;6.24;80.42
7940;BME280;4015;48.888;9.226;2023-02-12T05:16:55;156819.31;;;6.26;80.40
7940;BME280;4015;48.888;9.226;2023-02-12T05:19:21;156820.59;;;6.26;80.72
7940;BME280;4015;48.888;9.226;2023-02-12T05:21:49;156814.25;;;6.24;80.70
7940;BME280;4015;48.888;9.226;2023-02-12T05:24:15;156824.41;;;6.28;80.53
7940;BME280;4015;48.888;9.226;2023-02-12T05:26:40;156816.78;;;6.25;80.34
7940;BME280;4015;48.888;9.226;2023-02-12T05:29:06;156810.38;;;6.22;80.51
7940;BME280;4015;48.888;9.226;2023-02-12T05:31:31;156791.28;;;6.14;80.86
7940;BME280;4015;48.888;9.226;2023-02-12T05:33:57;156778.56;;;6.09;81.21
7940;BME280;4015;48.888;9.226;2023-02-12T05:36:23;156763.28;;;6.03;81.60
7940;BME280;4015;48.888;9.226;2023-02-12T05:38:52;156767.13;;;6.05;81.48
7940;BME280;4015;48.888;9.226;2023-02-12T05:41:22;156786.22;;;6.12;81.23
7940;BME280;4015;48.888;9.226;2023-02-12T05:43:48;156762.00;;;6.03;81.45
7940;BME280;4015;48.888;9.226;2023-02-12T05:46:14;156755.66;;;6.00;81.67
7940;BME280;4015;48.888;9.226;2023-02-12T05:48:39;156756.91;;;6.01;81.90
7940;BME280;4015;48.888;9.226;2023-02-12T05:51:07;156751.84;;;5.99;81.88
7940;BME280;4015;48.888;9.226;2023-02-12T05:53:34;156764.59;;;6.04;81.72
7940;BME280;4015;48.888;9.226;2023-02-12T05:56:14;156764.59;;;6.04;81.51
7940;BME280;4015;48.888;9.226;2023-02-12T05:58:40;156751.84;;;5.99;81.96
7940;BME280;4015;48.888;9.226;2023-02-12T06:01:21;156732.75;;;5.91;82.48
7940;BME280;4015;48.888;9.226;2023-02-12T06:03:47;156767.13;;;6.05;81.79
7940;BME280;4015;48.888;9.226;2023-02-12T06:06:12;156782.41;;;6.11;81.50
7940;BME280;4015;48.888;9.226;2023-02-12T06:08:38;156812.97;;;6.23;80.87
7940;BME280;4015;48.888;9.226;2023-02-12T06:11:06;156802.78;;;6.19;80.81
7940;BME280;4015;48.888;9.226;2023-02-12T06:13:33;156779.88;;;6.10;80.80
7940;BME280;4015;48.888;9.226;2023-02-12T06:15:58;156795.09;;;6.16;80.96
7940;BME280;4015;48.888;9.226;2023-02-12T06:18:24;156805.31;;;6.20;80.49
7940;BME280;4015;48.888;9.226;2023-02-12T06:20:49;156797.69;;;6.17;80.32
7940;BME280;4015;48.888;9.226;2023-02-12T06:23:15;156776.00;;;6.08;80.88
7940;BME280;4015;48.888;9.226;2023-02-12T06:25:40;156773.47;;;6.07;80.85
7940;BME280;4015;48.888;9.226;2023-02-12T06:28:05;156770.94;;;6.06;80.93
7940;BME280;4015;48.888;9.226;2023-02-12T06:30:33;156778.56;;;6.09;80.79
7940;BME280;4015;48.888;9.226;2023-02-12T06:32:58;156773.47;;;6.07;80.92
7940;BME280;4015;48.888;9.226;2023-02-12T06:35:23;156767.13;;;6.05;80.89
7940;BME280;4015;48.888;9.226;2023-02-12T06:37:49;156774.75;;;6.08;81.26
7940;BME280;4015;48.888;9.226;2023-02-12T06:40:14;156767.13;;;6.05;80.64
7940;BME280;4015;48.888;9.226;2023-02-12T06:42:39;156759.47;;;6.02;81.08
7940;BME280;4015;48.888;9.226;2023-02-12T06:45:05;156770.94;;;6.06;80.81
7940;BME280;4015;48.888;9.226;2023-02-12T06:47:30;156786.22;;;6.12;80.56
7940;BME280;4015;48.888;9.226;2023-02-12T06:49:56;156798.97;;;6.17;80.29
7940;BME280;4015;48.888;9.226;2023-02-12T06:52:21;156800.22;;;6.18;80.16
7940;BME280;4015;48.888;9.226;2023-02-12T06:54:47;156782.41;;;6.11;80.42
7940;BME280;4015;48.888;9.226;2023-02-12T06:57:12;156772.19;;;6.07;80.88
7940;BME280;4015;48.888;9.226;2023-02-12T06:59:37;156779.88;;;6.10;80.84
7940;BME280;4015;48.888;9.226;2023-02-12T07:02:03;156797.69;;;6.17;80.67
7940;BME280;4015;48.888;9.226;2023-02-12T07:04:28;156793.84;;;6.15;80.29
7940;BME280;4015;48.888;9.226;2023-02-12T07:06:53;156805.31;;;6.20;80.48
7940;BME280;4015;48.888;9.226;2023-02-12T07:09:18;156810.38;;;6.22;80.61
7940;BME280;4015;48.888;9.226;2023-02-12T07:11:44;156805.31;;;6.20;80.83
7940;BME280;4015;48.888;9.226;2023-02-12T07:14:14;156800.22;;;6.18;81.04
7940;BME280;4015;48.888;9.226;2023-02-12T07:16:39;156816.78;;;6.25;80.65
7940;BME280;4015;48.888;9.226;2023-02-12T07:19:05;156844.81;;;6.36;80.39
7940;BME280;4015;48.888;9.226;2023-02-12T07:21:30;156819.31;;;6.26;80.58
7940;BME280;4015;48.888;9.226;2023-02-12T07:23:56;156839.69;;;6.34;80.59
7940;BME280;4015;48.888;9.226;2023-02-12T07:26:21;156833.34;;;6.31;80.73
7940;BME280;4015;48.888;9.226;2023-02-12T07:28:48;156852.44;;;6.39;80.35
7940;BME280;4015;48.888;9.226;2023-02-12T07:31:16;156844.81;;;6.36;80.09
7940;BME280;4015;48.888;9.226;2023-02-12T07:33:42;156862.66;;;6.43;80.25
7940;BME280;4015;48.888;9.226;2023-02-12T07:36:10;156835.88;;;6.32;80.66
7940;BME280;4015;48.888;9.226;2023-02-12T07:38:37;156832.06;;;6.31;81.05
7940;BME280;4015;48.888;9.226;2023-02-12T07:41:27;156830.81;;;6.30;81.03
7940;BME280;4015;48.888;9.226;2023-02-12T07:43:54;156853.72;;;6.39;80.76
7940;BME280;4015;48.888;9.226;2023-02-12T07:46:31;156884.28;;;6.52;80.38
7940;BME280;4015;48.888;9.226;2023-02-12T07:48:58;156883.03;;;6.51;80.12
7940;BME280;4015;48.888;9.226;2023-02-12T07:51:25;156919.94;;;6.66;79.68
7940;BME280;4015;48.888;9.226;2023-02-12T07:53:51;156897.03;;;6.57;80.45
7940;BME280;4015;48.888;9.226;2023-02-12T07:56:22;156865.19;;;6.44;80.19
7940;BME280;4015;48.888;9.226;2023-02-12T07:58:49;156902.13;;;6.59;80.49
7940;BME280;4015;48.888;9.226;2023-02-12T08:01:17;156933.97;;;6.71;80.42
7940;BME280;4015;48.888;9.226;2023-02-12T08:03:44;156908.50;;;6.61;80.31
7940;BME280;4015;48.888;9.226;2023-02-12T08:06:12;156904.66;;;6.60;80.16
7940;BME280;4015;48.888;9.226;2023-02-12T08:08:37;156958.19;;;6.81;79.87
7940;BME280;4015;48.888;9.226;2023-02-12T08:11:05;157020.63;;;7.06;78.94
7940;BME280;4015;48.888;9.226;2023-02-12T08:13:31;156990.06;;;6.94;78.53
7940;BME280;4015;48.888;9.226;2023-02-12T08:16:01;157010.44;;;7.02;78.30
7940;BME280;4015;48.888;9.226;2023-02-12T08:18:26;157079.28;;;7.29;77.10
7940;BME280;4015;48.888;9.226;2023-02-12T08:20:52;157069.06;;;7.25;77.53
7940;BME280;4015;48.888;9.226;2023-02-12T08:23:17;157103.47;;;7.39;77.34
7940;BME280;4015;48.888;9.226;2023-02-12T08:25:42;157127.72;;;7.49;77.10
7940;BME280;4015;48.888;9.226;2023-02-12T08:28:08;157144.28;;;7.55;76.81
7940;BME280;4015;48.888;9.226;2023-02-12T08:30:33;157093.25;;;7.35;77.56
7940;BME280;4015;48.888;9.226;2023-02-12T08:32:58;157116.22;;;7.44;77.88
7940;BME280;4015;48.888;9.226;2023-02-12T08:35:23;157159.59;;;7.62;77.52
7940;BME280;4015;48.888;9.226;2023-02-12T08:37:49;157185.06;;;7.72;77.02
7940;BME280;4015;48.888;9.226;2023-02-12T08:40:14;157144.28;;;7.55;76.77
7940;BME280;4015;48.888;9.226;2023-02-12T08:42:39;157140.44;;;7.54;76.30
7940;BME280;4015;48.888;9.226;2023-02-12T08:45:05;157168.47;;;7.65;76.49
7940;BME280;4015;48.888;9.226;2023-02-12T08:47:30;157200.34;;;7.78;76.11
7940;BME280;4015;48.888;9.226;2023-02-12T08:49:56;157222.06;;;7.87;75.94
7940;BME280;4015;48.888;9.226;2023-02-12T08:52:21;157267.97;;;8.05;75.70
7940;BME280;4015;48.888;9.226;2023-02-12T08:54:47;157284.53;;;8.11;75.39
7940;BME280;4015;48.888;9.226;2023-02-12T08:57:12;157274.31;;;8.07;76.46
7940;BME280;4015;48.888;9.226;2023-02-12T08:59:37;157302.41;;;8.19;75.86
7940;BME280;4015;48.888;9.226;2023-02-12T09:02:02;157341.91;;;8.34;75.34
7940;BME280;4015;48.888;9.226;2023-02-12T09:04:32;157301.13;;;8.18;75.67
7940;BME280;4015;48.888;9.226;2023-02-12T09:07:00;157284.53;;;8.11;76.03
7940;BME280;4015;48.888;9.226;2023-02-12T09:09:25;157330.47;;;8.30;75.62
7940;BME280;4015;48.888;9.226;2023-02-12T09:11:50;157391.69;;;8.54;75.28
7940;BME280;4015;48.888;9.226;2023-02-12T09:14:17;157366.22;;;8.44;75.38
7940;BME280;4015;48.888;9.226;2023-02-12T09:16:47;157335.56;;;8.32;75.58
7940;BME280;4015;48.888;9.226;2023-02-12T09:19:13;157387.88;;;8.53;74.97
7940;BME280;4015;48.888;9.226;2023-02-12T09:21:40;157350.91;;;8.38;75.40
7940;BME280;4015;48.888;9.226;2023-02-12T09:24:06;157404.47;;;8.59;74.58
7940;BME280;4015;48.888;9.226;2023-02-12T09:26:31;157381.53;;;8.50;75.21
7940;BME280;4015;48.888;9.226;2023-02-12T09:28:57;157435.09;;;8.72;74.57
7940;BME280;4015;48.888;9.226;2023-02-12T09:31:25;157572.91;;;9.27;73.66
7940;BME280;4015;48.888;9.226;2023-02-12T09:33:52;157584.41;;;9.31;73.03
7940;BME280;4015;48.888;9.226;2023-02-12T09:36:18;157593.31;;;9.35;73.23
7940;BME280;4015;48.888;9.226;2023-02-12T09:38:43;157618.88;;;9.45;72.60
7940;BME280;4015;48.888;9.226;2023-02-12T09:41:29;157666.09;;;9.64;73.12
7940;BME280;4015;48.888;9.226;2023-02-12T09:46:51;157717.16;;;9.84;71.81
7940;BME280;4015;48.888;9.226;2023-02-12T09:52:23;157870.47;;;10.45;70.35
7940;BME280;4015;48.888;9.226;2023-02-12T09:54:50;157880.63;;;10.49;69.59
7940;BME280;4015;48.888;9.226;2023-02-12T09:57:22;157926.63;;;10.68;69.96
7940;BME280;4015;48.888;9.226;2023-02-12T09:59:57;157979.03;;;10.89;69.22
7940;BME280;4015;48.888;9.226;2023-02-12T10:02:23;158060.81;;;11.21;68.38
7940;BME280;4015;48.888;9.226;2023-02-12T10:04:51;158049.28;;;11.17;68.30
7940;BME280;4015;48.888;9.226;2023-02-12T10:13:44;158152.84;;;11.58;67.58
7940;BME280;4015;48.888;9.226;2023-02-12T10:19:17;158085.06;;;11.31;67.95
7940;BME280;4015;48.888;9.226;2023-02-12T10:21:59;158019.91;;;11.05;69.21
7940;BME280;4015;48.888;9.226;2023-02-12T10:27:06;157982.84;;;10.90;69.62
7940;BME280;4015;48.888;9.226;2023-02-12T10:29:38;157998.19;;;10.96;69.66
7940;BME280;4015;48.888;9.226;2023-02-12T10:32:13;157921.53;;;10.66;70.37
7940;BME280;4015;48.888;9.226;2023-02-12T10:34:41;157947.09;;;10.76;70.47
7940;BME280;4015;48.888;9.226;2023-02-12T10:39:46;157940.69;;;10.73;70.20
7940;BME280;4015;48.888;9.226;2023-02-12T10:42:20;157935.59;;;10.71;70.55
7940;BME280;4015;48.888;9.226;2023-02-12T10:44:50;157874.28;;;10.47;70.52
7940;BME280;4015;48.888;9.226;2023-02-12T10:47:19;157800.13;;;10.17;71.77
7940;BME280;4015;48.888;9.226;2023-02-12T10:49:45;157853.84;;;10.39;71.84
7940;BME280;4015;48.888;9.226;2023-02-12T10:52:23;157809.09;;;10.21;72.03
7940;BME280;4015;48.888;9.226;2023-02-12T10:54:54;157800.13;;;10.17;72.26
7940;BME280;4015;48.888;9.226;2023-02-12T10:57:22;157846.16;;;10.36;72.00
7940;BME280;4015;48.888;9.226;2023-02-12T10:59:50;157819.38;;;10.25;71.73
7940;BME280;4015;48.888;9.226;2023-02-12T11:02:32;157873.00;;;10.46;71.81
7940;BME280;4015;48.888;9.226;2023-02-12T11:04:59;157870.47;;;10.45;71.60
7940;BME280;4015;48.888;9.226;2023-02-12T11:07:26;157889.59;;;10.53;71.22
7940;BME280;4015;48.888;9.226;2023-02-12T11:09:54;157941.97;;;10.74;70.61
7940;BME280;4015;48.888;9.226;2023-02-12T11:14:57;157958.56;;;10.80;71.07
7940;BME280;4015;48.888;9.226;2023-02-12T11:17:34;157956.03;;;10.79;70.90
7940;BME280;4015;48.888;9.226;2023-02-12T11:20:21;157933.03;;;10.70;71.06
7940;BME280;4015;48.888;9.226;2023-02-12T11:23:04;157939.41;;;10.73;70.84
7940;BME280;4015;48.888;9.226;2023-02-12T11:25:36;158007.13;;;11.00;69.95
7940;BME280;4015;48.888;9.226;2023-02-12T11:30:56;158062.09;;;11.22;69.69
7940;BME280;4015;48.888;9.226;2023-02-12T11:33:32;158096.59;;;11.35;68.89
7940;BME280;4015;48.888;9.226;2023-02-12T11:36:03;158096.59;;;11.35;68.56
7940;BME280;4015;48.888;9.226;2023-02-12T11:38:37;158173.28;;;11.66;68.12
7940;BME280;4015;48.888;9.226;2023-02-12T11:41:20;158186.06;;;11.71;68.15
7940;BME280;4015;48.888;9.226;2023-02-12T11:43:47;158229.59;;;11.88;67.40
7940;BME280;4015;48.888;9.226;2023-02-12T11:46:18;158297.34;;;12.15;66.82
7940;BME280;4015;48.888;9.226;2023-02-12T11:48:45;158372.78;;;12.46;65.80
7940;BME280;4015;48.888;9.226;2023-02-12T11:51:21;158322.94;;;12.26;66.67
7940;BME280;4015;48.888;9.226;2023-02-12T11:53:51;158393.25;;;12.54;64.83
7940;BME280;4015;48.888;9.226;2023-02-12T11:56:17;158334.41;;;12.30;66.24
7940;BME280;4015;48.888;9.226;2023-02-12T11:58:45;158390.69;;;12.53;65.12
7940;BME280;4015;48.888;9.226;2023-02-12T12:01:35;158449.53;;;12.76;65.19
7940;BME280;4015;48.888;9.226;2023-02-12T12:04:06;158471.28;;;12.85;64.60
7940;BME280;4015;48.888;9.226;2023-02-12T12:06:36;158531.41;;;13.09;64.13
7940;BME280;4015;48.888;9.226;2023-02-12T12:14:33;158556.97;;;13.19;64.55
7940;BME280;4015;48.888;9.226;2023-02-12T12:17:24;158645.31;;;13.54;63.14
7940;BME280;4015;48.888;9.226;2023-02-12T12:20:22;158718.31;;;13.83;62.54
7940;BME280;4015;48.888;9.226;2023-02-12T12:23:13;158928.31;;;14.67;60.43
7940;BME280;4015;48.888;9.226;2023-02-12T12:25:53;159014.09;;;15.01;59.68
7940;BME280;4015;48.888;9.226;2023-02-12T12:28:34;159138.38;;;15.50;58.77
7940;BME280;4015;48.888;9.226;2023-02-12T12:31:07;159383.22;;;16.48;56.11
7940;BME280;4015;48.888;9.226;2023-02-12T12:41:41;159302.47;;;16.15;55.96
7940;BME280;4015;48.888;9.226;2023-02-12T12:50:37;159343.47;;;16.32;55.32
7940;BME280;4015;48.888;9.226;2023-02-12T12:58:41;159863.03;;;18.38;49.92
7940;BME280;4015;48.888;9.226;2023-02-12T13:01:39;159916.91;;;18.59;50.27
7940;BME280;4015;48.888;9.226;2023-02-12T13:07:27;159510.22;;;16.98;53.16
7940;BME280;4015;48.888;9.226;2023-02-12T13:13:08;159612.78;;;17.39;52.25
7940;BME280;4015;48.888;9.226;2023-02-12T13:21:16;159326.81;;;16.25;55.61
7940;BME280;4015;48.888;9.226;2023-02-12T13:23:55;159355.00;;;16.36;55.74
7940;BME280;4015;48.888;9.226;2023-02-12T13:26:32;159274.25;;;16.04;56.02
7940;BME280;4015;48.888;9.226;2023-02-12T13:29:23;159112.78;;;15.40;56.69
7940;BME280;4015;48.888;9.226;2023-02-12T13:31:54;158955.22;;;14.77;58.31
7940;BME280;4015;48.888;9.226;2023-02-12T13:34:21;158912.94;;;14.61;58.66
7940;BME280;4015;48.888;9.226;2023-02-12T13:36:50;158842.44;;;14.32;59.08
7940;BME280;4015;48.888;9.226;2023-02-12T13:39:35;158807.88;;;14.19;59.85
7940;BME280;4015;48.888;9.226;2023-02-12T13:50:26;159080.75;;;15.27;57.56
7940;BME280;4015;48.888;9.226;2023-02-12T13:54:00;159135.81;;;15.49;56.52
7940;BME280;4015;48.888;9.226;2023-02-12T13:56:27;159301.16;;;16.15;55.28
7940;BME280;4015;48.888;9.226;2023-02-12T13:58:55;159470.44;;;16.82;53.78
7940;BME280;4015;48.888;9.226;2023-02-12T14:01:47;159599.94;;;17.34;52.31
7940;BME280;4015;48.888;9.226;2023-02-12T14:04:14;159539.72;;;17.10;52.59
7940;BME280;4015;48.888;9.226;2023-02-12T14:09:31;159452.50;;;16.75;53.34
7940;BME280;4015;48.888;9.226;2023-02-12T14:11:58;159374.22;;;16.44;54.15
7940;BME280;4015;48.888;9.226;2023-02-12T14:14:46;159414.00;;;16.60;54.07
7940;BME280;4015;48.888;9.226;2023-02-12T14:24:57;159369.13;;;16.42;54.50
7940;BME280;4015;48.888;9.226;2023-02-12T14:37:54;159343.47;;;16.32;54.42
7940;BME280;4015;48.888;9.226;2023-02-12T14:42:58;159530.72;;;17.06;52.86
7940;BME280;4015;48.888;9.226;2023-02-12T14:45:35;159579.44;;;17.25;52.26
7940;BME280;4015;48.888;9.226;2023-02-12T14:48:02;159479.44;;;16.86;52.90
7940;BME280;4015;48.888;9.226;2023-02-12T14:50:34;159346.03;;;16.33;54.11
7940;BME280;4015;48.888;9.226;2023-02-12T14:53:25;159255.06;;;15.97;54.37
7940;BME280;4015;48.888;9.226;2023-02-12T14:55:54;159101.22;;;15.35;56.03
7940;BME280;4015;48.888;9.226;2023-02-12T14:58:22;158980.78;;;14.88;57.29
7940;BME280;4015;48.888;9.226;2023-02-12T15:00:52;158861.69;;;14.40;58.88
7940;BME280;4015;48.888;9.226;2023-02-12T15:03:22;158756.69;;;13.98;60.46
7940;BME280;4015;48.888;9.226;2023-02-12T15:09:01;158695.22;;;13.74;61.58
7940;BME280;4015;48.888;9.226;2023-02-12T15:11:40;158652.97;;;13.57;61.92
7940;BME280;4015;48.888;9.226;2023-02-12T15:14:27;158661.97;;;13.61;62.04
7940;BME280;4015;48.888;9.226;2023-02-12T15:19:54;158569.81;;;13.24;63.05
7940;BME280;4015;48.888;9.226;2023-02-12T15:22:33;158527.53;;;13.07;63.39
7940;BME280;4015;48.888;9.226;2023-02-12T15:28:00;158484.06;;;12.90;63.95
7940;BME280;4015;48.888;9.226;2023-02-12T15:30:29;158423.94;;;12.66;64.85
7940;BME280;4015;48.888;9.226;2023-02-12T15:32:57;158335.69;;;12.31;65.62
7940;BME280;4015;48.888;9.226;2023-02-12T15:35:30;158312.69;;;12.22;66.46
7940;BME280;4015;48.888;9.226;2023-02-12T15:37:57;158326.75;;;12.27;66.85
7940;BME280;4015;48.888;9.226;2023-02-12T15:40:25;158345.94;;;12.35;66.27
7940;BME280;4015;48.888;9.226;2023-02-12T15:42:54;158265.38;;;12.03;67.14
7940;BME280;4015;48.888;9.226;2023-02-12T15:45:27;158183.53;;;11.70;68.19
7940;BME280;4015;48.888;9.226;2023-02-12T15:47:59;158179.66;;;11.69;68.13
7940;BME280;4015;48.888;9.226;2023-02-12T15:50:26;158170.72;;;11.65;68.33
7940;BME280;4015;48.888;9.226;2023-02-12T15:52:52;158154.09;;;11.58;68.64
7940;BME280;4015;48.888;9.226;2023-02-12T15:55:20;158136.22;;;11.51;68.62